sensor_id;sensor_type;location;lat;lon;timestamp;temperature;humidity
17442;DHT22;8838;50.144;8.176;2024-01-30T00:00:52;5.00;99.90
17442;DHT22;8838;50.144;8.176;2024-01-30T00:03:19;5.00;99.90
17442;DHT22;8838;50.144;8.176;2024-01-30T00:05:46;5.00;99.90
17442;DHT22;8838;50.144;8.176;2024-01-30T00:08:14;4.90;99.90
17442;DHT22;8838;50.144;8.176;2024-01-30T00:10:41;4.90;99.90
17442;DHT22;8838;50.144;8.176;2024-01-30T00:13:08;4.90;99.90
17442;DHT22;8838;50.144;8.176;2024-01-30T00:15:35;4.80;99.90
17442;DHT22;8838;50.144;8.176;2024-01-30T00:18:02;4.80;99.90
17442;DHT22;8838;50.144;8.176;2024-01-30T00:20:29;4.80;99.90
17442;DHT22;8838;50.144;8.176;2024-01-30T00:22:56;4.80;99.90
17442;DHT22;8838;50.144;8.176;2024-01-30T00:25:25;4.70;99.90
17442;DHT22;8838;50.144;8.176;2024-01-30T00:27:52;4.60;99.90
17442;DHT22;8838;50.144;8.176;2024-01-30T00:30:19;4.60;99.90
17442;DHT22;8838;50.144;8.176;2024-01-30T00:32:46;4.50;99.90
17442;DHT22;8838;50.144;8.176;2024-01-30T00:35:13;4.40;99.90
17442;DHT22;8838;50.144;8.176;2024-01-30T00:37:40;4.30;99.90
17442;DHT22;8838;50.144;8.176;2024-01-30T00:40:08;4.30;99.90
17442;DHT22;8838;50.144;8.176;2024-01-30T00:42:42;4.40;99.90
17442;DHT22;8838;50.144;8.176;2024-01-30T00:45:12;4.40;99.90
17442;DHT22;8838;50.144;8.176;2024-01-30T00:47:39;4.40;99.90
17442;DHT22;8838;50.144;8.176;2024-01-30T00:50:07;4.50;99.90
17442;DHT22;8838;50.144;8.176;2024-01-30T00:52:34;4.50;99.90
17442;DHT22;8838;50.144;8.176;2024-01-30T00:55:01;4.50;99.90
17442;DHT22;8838;50.144;8.176;2024-01-30T00:57:28;4.60;99.90
17442;DHT22;8838;50.144;8.176;2024-01-30T00:59:57;4.70;99.90
17442;DHT22;8838;50.144;8.176;2024-01-30T01:02:24;4.70;99.90
17442;DHT22;8838;50.144;8.176;2024-01-30T01:04:52;4.60;99.90
17442;DHT22;8838;50.144;8.176;2024-01-30T01:07:19;4.60;99.90
17442;DHT22;8838;50.144;8.176;2024-01-30T01:09:46;4.60;99.90
17442;DHT22;8838;50.144;8.176;2024-01-30T01:12:13;4.70;99.90
17442;DHT22;8838;50.144;8.176;2024-01-30T01:14:40;4.70;99.90
17442;DHT22;8838;50.144;8.176;2024-01-30T01:17:08;4.70;99.90
17442;DHT22;8838;50.144;8.176;2024-01-30T01:19:35;4.60;99.90
17442;DHT22;8838;50.144;8.176;2024-01-30T01:22:02;4.70;99.90
17442;DHT22;8838;50.144;8.176;2024-01-30T01:24:31;4.80;99.90
17442;DHT22;8838;50.144;8.176;2024-01-30T01:26:58;4.90;99.90
17442;DHT22;8838;50.144;8.176;2024-01-30T01:29:25;4.90;99.90
17442;DHT22;8838;50.144;8.176;2024-01-30T01:31:54;4.80;99.90
17442;DHT22;8838;50.144;8.176;2024-01-30T01:34:24;4.80;99.90
17442;DHT22;8838;50.144;8.176;2024-01-30T01:36:51;4.70;99.90
17442;DHT22;8838;50.144;8.176;2024-01-30T01:39:21;4.60;99.90
17442;DHT22;8838;50.144;8.176;2024-01-30T01:41:48;4.50;99.90
17442;DHT22;8838;50.144;8.176;2024-01-30T01:44:15;4.40;99.90
17442;DHT22;8838;50.144;8.176;2024-01-30T01:46:42;4.30;99.90
17442;DHT22;8838;50.144;8.176;2024-01-30T01:49:09;4.30;99.90
17442;DHT22;8838;50.144;8.176;2024-01-30T01:51:38;4.40;99.90
17442;DHT22;8838;50.144;8.176;2024-01-30T01:54:08;4.40;99.90
17442;DHT22;8838;50.144;8.176;2024-01-30T01:56:37;4.50;99.90
17442;DHT22;8838;50.144;8.176;2024-01-30T01:59:06;4.50;99.90
17442;DHT22;8838;50.144;8.176;2024-01-30T02:01:34;4.60;99.90
17442;DHT22;8838;50.144;8.176;2024-01-30T02:04:03;4.60;99.90
17442;DHT22;8838;50.144;8.176;2024-01-30T02:06:30;4.60;99.90
17442;DHT22;8838;50.144;8.176;2024-01-30T02:08:59;4.60;99.90
17442;DHT22;8838;50.144;8.176;2024-01-30T02:11:26;4.80;99.90
17442;DHT22;8838;50.144;8.176;2024-01-30T02:13:53;4.90;99.90
17442;DHT22;8838;50.144;8.176;2024-01-30T02:16:20;5.00;99.90
17442;DHT22;8838;50.144;8.176;2024-01-30T02:18:47;5.00;99.90
17442;DHT22;8838;50.144;8.176;2024-01-30T02:21:16;5.20;99.90
17442;DHT22;8838;50.144;8.176;2024-01-30T02:23:44;5.30;99.90
17442;DHT22;8838;50.144;8.176;2024-01-30T02:26:11;5.40;99.90
17442;DHT22;8838;50.144;8.176;2024-01-30T02:28:39;5.50;99.90
17442;DHT22;8838;50.144;8.176;2024-01-30T02:31:06;5.60;99.90
17442;DHT22;8838;50.144;8.176;2024-01-30T02:33:34;5.50;99.90
17442;DHT22;8838;50.144;8.176;2024-01-30T02:36:01;5.60;99.90
17442;DHT22;8838;50.144;8.176;2024-01-30T02:38:29;5.60;99.90
17442;DHT22;8838;50.144;8.176;2024-01-30T02:40:56;5.60;99.90
17442;DHT22;8838;50.144;8.176;2024-01-30T02:43:23;5.60;99.90
17442;DHT22;8838;50.144;8.176;2024-01-30T02:45:51;5.60;99.90
17442;DHT22;8838;50.144;8.176;2024-01-30T02:48:17;5.60;99.90
17442;DHT22;8838;50.144;8.176;2024-01-30T02:50:44;5.60;99.90
17442;DHT22;8838;50.144;8.176;2024-01-30T02:53:12;5.60;99.90
17442;DHT22;8838;50.144;8.176;2024-01-30T02:55:40;5.60;99.90
17442;DHT22;8838;50.144;8.176;2024-01-30T02:58:07;5.60;99.90
17442;DHT22;8838;50.144;8.176;2024-01-30T03:00:34;5.60;99.90
17442;DHT22;8838;50.144;8.176;2024-01-30T03:03:01;5.60;99.90
17442;DHT22;8838;50.144;8.176;2024-01-30T03:05:31;5.60;99.90
17442;DHT22;8838;50.144;8.176;2024-01-30T03:07:58;5.60;99.90
17442;DHT22;8838;50.144;8.176;2024-01-30T03:10:25;5.60;99.90
17442;DHT22;8838;50.144;8.176;2024-01-30T03:12:54;5.60;99.90
17442;DHT22;8838;50.144;8.176;2024-01-30T03:15:21;5.60;99.90
17442;DHT22;8838;50.144;8.176;2024-01-30T03:17:48;5.60;99.90
17442;DHT22;8838;50.144;8.176;2024-01-30T03:20:15;5.60;99.90
17442;DHT22;8838;50.144;8.176;2024-01-30T03:22:42;5.60;99.90
17442;DHT22;8838;50.144;8.176;2024-01-30T03:25:08;5.50;99.90
17442;DHT22;8838;50.144;8.176;2024-01-30T03:27:35;5.50;99.90
17442;DHT22;8838;50.144;8.176;2024-01-30T03:30:05;5.40;99.90
17442;DHT22;8838;50.144;8.176;2024-01-30T03:32:32;5.40;99.90
17442;DHT22;8838;50.144;8.176;2024-01-30T03:35:00;5.30;99.90
17442;DHT22;8838;50.144;8.176;2024-01-30T03:37:26;5.20;99.90
17442;DHT22;8838;50.144;8.176;2024-01-30T03:39:54;5.10;99.90
17442;DHT22;8838;50.144;8.176;2024-01-30T03:42:22;5.00;99.90
17442;DHT22;8838;50.144;8.176;2024-01-30T03:44:49;5.00;99.90
17442;DHT22;8838;50.144;8.176;2024-01-30T03:47:20;5.00;99.90
17442;DHT22;8838;50.144;8.176;2024-01-30T03:49:47;5.00;99.90
17442;DHT22;8838;50.144;8.176;2024-01-30T03:52:14;5.10;99.90
17442;DHT22;8838;50.144;8.176;2024-01-30T03:54:41;5.20;99.90
17442;DHT22;8838;50.144;8.176;2024-01-30T03:57:10;5.30;99.90
17442;DHT22;8838;50.144;8.176;2024-01-30T03:59:41;5.30;99.90
17442;DHT22;8838;50.144;8.176;2024-01-30T04:02:10;5.30;99.90
17442;DHT22;8838;50.144;8.176;2024-01-30T04:04:40;5.20;99.90
17442;DHT22;8838;50.144;8.176;2024-01-30T04:07:07;5.30;99.90
17442;DHT22;8838;50.144;8.176;2024-01-30T04:09:34;5.30;99.90
17442;DHT22;8838;50.144;8.176;2024-01-30T04:12:01;5.30;99.90
17442;DHT22;8838;50.144;8.176;2024-01-30T04:14:29;5.20;99.90
17442;DHT22;8838;50.144;8.176;2024-01-30T04:16:56;5.20;99.90
17442;DHT22;8838;50.144;8.176;2024-01-30T04:19:23;5.10;99.90
17442;DHT22;8838;50.144;8.176;2024-01-30T04:21:54;5.10;99.90
17442;DHT22;8838;50.144;8.176;2024-01-30T04:24:21;5.20;99.90
17442;DHT22;8838;50.144;8.176;2024-01-30T04:26:47;5.20;99.90
17442;DHT22;8838;50.144;8.176;2024-01-30T04:29:13;5.40;99.90
17442;DHT22;8838;50.144;8.176;2024-01-30T04:31:40;5.30;99.90
17442;DHT22;8838;50.144;8.176;2024-01-30T04:34:07;5.30;99.90
17442;DHT22;8838;50.144;8.176;2024-01-30T04:36:34;5.20;99.90
17442;DHT22;8838;50.144;8.176;2024-01-30T04:39:02;5.20;99.90
17442;DHT22;8838;50.144;8.176;2024-01-30T04:41:29;5.10;99.90
17442;DHT22;8838;50.144;8.176;2024-01-30T04:43:57;5.20;99.90
17442;DHT22;8838;50.144;8.176;2024-01-30T04:46:26;5.30;99.90
17442;DHT22;8838;50.144;8.176;2024-01-30T04:48:53;5.20;99.90
17442;DHT22;8838;50.144;8.176;2024-01-30T04:51:21;5.10;99.90
17442;DHT22;8838;50.144;8.176;2024-01-30T04:53:48;5.20;99.90
17442;DHT22;8838;50.144;8.176;2024-01-30T04:56:18;5.20;99.90
17442;DHT22;8838;50.144;8.176;2024-01-30T04:58:45;5.30;99.90
17442;DHT22;8838;50.144;8.176;2024-01-30T05:01:15;5.40;99.90
17442;DHT22;8838;50.144;8.176;2024-01-30T05:03:42;5.40;99.90
17442;DHT22;8838;50.144;8.176;2024-01-30T05:06:11;5.40;99.90
17442;DHT22;8838;50.144;8.176;2024-01-30T05:08:38;5.40;99.90
17442;DHT22;8838;50.144;8.176;2024-01-30T05:11:06;5.30;99.90
17442;DHT22;8838;50.144;8.176;2024-01-30T05:13:34;5.30;99.90
17442;DHT22;8838;50.144;8.176;2024-01-30T05:16:02;5.40;99.90
17442;DHT22;8838;50.144;8.176;2024-01-30T05:18:30;5.30;99.90
17442;DHT22;8838;50.144;8.176;2024-01-30T05:20:57;5.30;99.90
17442;DHT22;8838;50.144;8.176;2024-01-30T05:23:25;5.40;99.90
17442;DHT22;8838;50.144;8.176;2024-01-30T05:25:52;5.40;99.90
17442;DHT22;8838;50.144;8.176;2024-01-30T05:28:19;5.30;99.90
17442;DHT22;8838;50.144;8.176;2024-01-30T05:30:47;5.30;99.90
17442;DHT22;8838;50.144;8.176;2024-01-30T05:33:14;5.40;99.90
17442;DHT22;8838;50.144;8.176;2024-01-30T05:35:42;5.30;99.90
17442;DHT22;8838;50.144;8.176;2024-01-30T05:38:09;5.30;99.90
17442;DHT22;8838;50.144;8.176;2024-01-30T05:40:36;5.30;99.90
17442;DHT22;8838;50.144;8.176;2024-01-30T05:43:03;5.30;99.90
17442;DHT22;8838;50.144;8.176;2024-01-30T05:45:30;5.30;99.90
17442;DHT22;8838;50.144;8.176;2024-01-30T05:47:58;5.40;99.90
17442;DHT22;8838;50.144;8.176;2024-01-30T05:50:25;5.30;99.90
17442;DHT22;8838;50.144;8.176;2024-01-30T05:52:52;5.30;99.90
17442;DHT22;8838;50.144;8.176;2024-01-30T05:55:19;5.30;99.90
17442;DHT22;8838;50.144;8.176;2024-01-30T05:57:45;5.30;99.90
17442;DHT22;8838;50.144;8.176;2024-01-30T06:00:13;5.20;99.90
17442;DHT22;8838;50.144;8.176;2024-01-30T06:02:41;5.20;99.90
17442;DHT22;8838;50.144;8.176;2024-01-30T06:05:10;5.10;99.90
17442;DHT22;8838;50.144;8.176;2024-01-30T06:07:39;5.10;99.90
17442;DHT22;8838;50.144;8.176;2024-01-30T06:10:08;5.20;99.90
17442;DHT22;8838;50.144;8.176;2024-01-30T06:12:36;5.10;99.90
17442;DHT22;8838;50.144;8.176;2024-01-30T06:15:04;5.10;99.90
17442;DHT22;8838;50.144;8.176;2024-01-30T06:17:33;5.10;99.90
17442;DHT22;8838;50.144;8.176;2024-01-30T06:20:01;5.10;99.90
17442;DHT22;8838;50.144;8.176;2024-01-30T06:22:31;5.10;99.90
17442;DHT22;8838;50.144;8.176;2024-01-30T06:24:58;5.10;99.90
17442;DHT22;8838;50.144;8.176;2024-01-30T06:27:25;5.00;99.90
17442;DHT22;8838;50.144;8.176;2024-01-30T06:29:53;5.10;99.90
17442;DHT22;8838;50.144;8.176;2024-01-30T06:32:20;5.10;99.90
17442;DHT22;8838;50.144;8.176;2024-01-30T06:34:48;5.10;99.90
17442;DHT22;8838;50.144;8.176;2024-01-30T06:37:17;5.10;99.90
17442;DHT22;8838;50.144;8.176;2024-01-30T06:39:45;5.10;99.90
17442;DHT22;8838;50.144;8.176;2024-01-30T06:42:13;5.10;99.90
17442;DHT22;8838;50.144;8.176;2024-01-30T06:44:40;5.00;99.90
17442;DHT22;8838;50.144;8.176;2024-01-30T06:47:07;5.00;99.90
17442;DHT22;8838;50.144;8.176;2024-01-30T06:49:34;4.90;99.90
17442;DHT22;8838;50.144;8.176;2024-01-30T06:52:04;4.90;99.90
17442;DHT22;8838;50.144;8.176;2024-01-30T06:54:42;4.80;99.90
17442;DHT22;8838;50.144;8.176;2024-01-30T06:57:10;4.90;99.90
17442;DHT22;8838;50.144;8.176;2024-01-30T06:59:40;4.80;99.90
17442;DHT22;8838;50.144;8.176;2024-01-30T07:02:09;4.80;99.90
17442;DHT22;8838;50.144;8.176;2024-01-30T07:04:38;4.70;99.90
17442;DHT22;8838;50.144;8.176;2024-01-30T07:07:06;4.70;99.90
17442;DHT22;8838;50.144;8.176;2024-01-30T07:09:38;4.80;99.90
17442;DHT22;8838;50.144;8.176;2024-01-30T07:12:07;4.80;99.90
17442;DHT22;8838;50.144;8.176;2024-01-30T07:14:35;4.70;99.90
17442;DHT22;8838;50.144;8.176;2024-01-30T07:17:03;4.70;99.90
17442;DHT22;8838;50.144;8.176;2024-01-30T07:19:30;4.70;99.90
17442;DHT22;8838;50.144;8.176;2024-01-30T07:21:57;4.70;99.90
17442;DHT22;8838;50.144;8.176;2024-01-30T07:24:24;4.70;99.90
17442;DHT22;8838;50.144;8.176;2024-01-30T07:26:51;4.60;99.90
17442;DHT22;8838;50.144;8.176;2024-01-30T07:29:18;4.70;99.90
17442;DHT22;8838;50.144;8.176;2024-01-30T07:31:46;4.80;99.90
17442;DHT22;8838;50.144;8.176;2024-01-30T07:34:13;4.80;99.90
17442;DHT22;8838;50.144;8.176;2024-01-30T07:36:40;4.90;99.90
17442;DHT22;8838;50.144;8.176;2024-01-30T07:39:07;4.90;99.90
17442;DHT22;8838;50.144;8.176;2024-01-30T07:41:35;4.90;99.90
17442;DHT22;8838;50.144;8.176;2024-01-30T07:44:03;5.00;99.90
17442;DHT22;8838;50.144;8.176;2024-01-30T07:46:31;4.90;99.90
17442;DHT22;8838;50.144;8.176;2024-01-30T07:48:59;5.00;99.90
17442;DHT22;8838;50.144;8.176;2024-01-30T07:51:27;5.10;99.90
17442;DHT22;8838;50.144;8.176;2024-01-30T07:53:57;5.10;99.90
17442;DHT22;8838;50.144;8.176;2024-01-30T07:56:24;5.10;99.90
17442;DHT22;8838;50.144;8.176;2024-01-30T07:58:50;5.10;99.90
17442;DHT22;8838;50.144;8.176;2024-01-30T08:01:18;5.20;99.90
17442;DHT22;8838;50.144;8.176;2024-01-30T08:03:45;5.20;99.90
17442;DHT22;8838;50.144;8.176;2024-01-30T08:06:13;5.30;99.90
17442;DHT22;8838;50.144;8.176;2024-01-30T08:08:40;5.30;99.90
17442;DHT22;8838;50.144;8.176;2024-01-30T08:11:07;5.30;99.90
17442;DHT22;8838;50.144;8.176;2024-01-30T08:13:34;5.30;99.90
17442;DHT22;8838;50.144;8.176;2024-01-30T08:16:01;5.40;99.90
17442;DHT22;8838;50.144;8.176;2024-01-30T08:18:28;5.40;99.90
17442;DHT22;8838;50.144;8.176;2024-01-30T08:20:55;5.40;99.90
17442;DHT22;8838;50.144;8.176;2024-01-30T08:23:23;5.50;99.90
17442;DHT22;8838;50.144;8.176;2024-01-30T08:25:50;5.50;99.90
17442;DHT22;8838;50.144;8.176;2024-01-30T08:28:17;5.60;99.90
17442;DHT22;8838;50.144;8.176;2024-01-30T08:30:44;5.70;99.90
17442;DHT22;8838;50.144;8.176;2024-01-30T08:33:11;5.70;99.90
17442;DHT22;8838;50.144;8.176;2024-01-30T08:35:38;5.90;99.90
17442;DHT22;8838;50.144;8.176;2024-01-30T08:38:05;5.90;99.90
17442;DHT22;8838;50.144;8.176;2024-01-30T08:40:33;5.90;99.90
17442;DHT22;8838;50.144;8.176;2024-01-30T08:43:00;5.90;99.90
17442;DHT22;8838;50.144;8.176;2024-01-30T08:45:29;5.90;99.90
17442;DHT22;8838;50.144;8.176;2024-01-30T08:47:56;5.90;99.90
17442;DHT22;8838;50.144;8.176;2024-01-30T08:50:23;5.90;99.90
17442;DHT22;8838;50.144;8.176;2024-01-30T08:52:50;5.90;99.90
17442;DHT22;8838;50.144;8.176;2024-01-30T08:55:16;5.90;99.90
17442;DHT22;8838;50.144;8.176;2024-01-30T08:57:45;5.90;99.90
17442;DHT22;8838;50.144;8.176;2024-01-30T09:00:13;5.80;99.90
17442;DHT22;8838;50.144;8.176;2024-01-30T09:02:40;5.90;99.90
17442;DHT22;8838;50.144;8.176;2024-01-30T09:05:07;6.00;99.90
17442;DHT22;8838;50.144;8.176;2024-01-30T09:07:34;5.90;99.90
17442;DHT22;8838;50.144;8.176;2024-01-30T09:10:01;6.00;99.90
17442;DHT22;8838;50.144;8.176;2024-01-30T09:12:28;6.00;99.90
17442;DHT22;8838;50.144;8.176;2024-01-30T09:14:57;6.10;99.90
17442;DHT22;8838;50.144;8.176;2024-01-30T09:17:25;6.10;99.90
17442;DHT22;8838;50.144;8.176;2024-01-30T09:19:52;6.20;99.90
17442;DHT22;8838;50.144;8.176;2024-01-30T09:22:18;6.20;99.90
17442;DHT22;8838;50.144;8.176;2024-01-30T09:24:45;6.30;99.90
17442;DHT22;8838;50.144;8.176;2024-01-30T09:27:12;6.40;99.90
17442;DHT22;8838;50.144;8.176;2024-01-30T09:29:39;6.40;99.90
17442;DHT22;8838;50.144;8.176;2024-01-30T09:32:08;6.50;99.90
17442;DHT22;8838;50.144;8.176;2024-01-30T09:34:35;6.50;99.90
17442;DHT22;8838;50.144;8.176;2024-01-30T09:37:03;6.50;99.90
17442;DHT22;8838;50.144;8.176;2024-01-30T09:39:30;6.50;99.90
17442;DHT22;8838;50.144;8.176;2024-01-30T09:42:03;6.50;99.90
17442;DHT22;8838;50.144;8.176;2024-01-30T09:44:34;6.50;99.90
17442;DHT22;8838;50.144;8.176;2024-01-30T09:47:01;6.50;99.90
17442;DHT22;8838;50.144;8.176;2024-01-30T09:49:34;6.40;99.90
17442;DHT22;8838;50.144;8.176;2024-01-30T09:52:02;6.50;99.90
17442;DHT22;8838;50.144;8.176;2024-01-30T09:54:30;6.50;99.90
17442;DHT22;8838;50.144;8.176;2024-01-30T09:56:57;6.50;99.90
17442;DHT22;8838;50.144;8.176;2024-01-30T09:59:24;6.50;99.90
17442;DHT22;8838;50.144;8.176;2024-01-30T10:01:51;6.60;99.90
17442;DHT22;8838;50.144;8.176;2024-01-30T10:04:18;6.70;99.90
17442;DHT22;8838;50.144;8.176;2024-01-30T10:06:47;6.70;99.90
17442;DHT22;8838;50.144;8.176;2024-01-30T10:09:15;6.80;99.90
17442;DHT22;8838;50.144;8.176;2024-01-30T10:11:42;6.80;99.90
17442;DHT22;8838;50.144;8.176;2024-01-30T10:14:09;6.70;99.90
17442;DHT22;8838;50.144;8.176;2024-01-30T10:16:36;6.80;99.90
17442;DHT22;8838;50.144;8.176;2024-01-30T10:19:03;6.80;99.90
17442;DHT22;8838;50.144;8.176;2024-01-30T10:21:30;6.90;99.90
17442;DHT22;8838;50.144;8.176;2024-01-30T10:23:59;6.90;99.90
17442;DHT22;8838;50.144;8.176;2024-01-30T10:26:26;7.00;99.90
17442;DHT22;8838;50.144;8.176;2024-01-30T10:28:54;7.10;99.90
17442;DHT22;8838;50.144;8.176;2024-01-30T10:31:21;7.10;99.90
17442;DHT22;8838;50.144;8.176;2024-01-30T10:33:49;7.10;99.90
17442;DHT22;8838;50.144;8.176;2024-01-30T10:36:17;7.20;99.90
17442;DHT22;8838;50.144;8.176;2024-01-30T10:38:45;7.20;99.90
17442;DHT22;8838;50.144;8.176;2024-01-30T10:41:17;7.20;99.90
17442;DHT22;8838;50.144;8.176;2024-01-30T10:43:54;7.30;99.90
17442;DHT22;8838;50.144;8.176;2024-01-30T10:46:31;7.40;99.90
17442;DHT22;8838;50.144;8.176;2024-01-30T10:48:59;7.60;99.90
17442;DHT22;8838;50.144;8.176;2024-01-30T10:51:28;7.60;99.90
17442;DHT22;8838;50.144;8.176;2024-01-30T10:53:56;7.80;99.90
17442;DHT22;8838;50.144;8.176;2024-01-30T10:56:25;7.80;99.90
17442;DHT22;8838;50.144;8.176;2024-01-30T10:58:52;7.90;99.90
17442;DHT22;8838;50.144;8.176;2024-01-30T11:01:21;8.10;99.90
17442;DHT22;8838;50.144;8.176;2024-01-30T11:03:49;8.20;99.90
17442;DHT22;8838;50.144;8.176;2024-01-30T11:06:16;8.40;99.90
17442;DHT22;8838;50.144;8.176;2024-01-30T11:08:44;8.40;99.90
17442;DHT22;8838;50.144;8.176;2024-01-30T11:11:12;8.50;99.90
17442;DHT22;8838;50.144;8.176;2024-01-30T11:13:40;8.60;99.90
17442;DHT22;8838;50.144;8.176;2024-01-30T11:16:11;8.60;99.90
17442;DHT22;8838;50.144;8.176;2024-01-30T11:18:39;8.60;99.90
17442;DHT22;8838;50.144;8.176;2024-01-30T11:21:06;8.50;99.90
17442;DHT22;8838;50.144;8.176;2024-01-30T11:23:34;8.50;99.90
17442;DHT22;8838;50.144;8.176;2024-01-30T11:26:01;8.40;99.90
17442;DHT22;8838;50.144;8.176;2024-01-30T11:28:32;8.40;99.90
17442;DHT22;8838;50.144;8.176;2024-01-30T11:31:05;8.40;99.90
17442;DHT22;8838;50.144;8.176;2024-01-30T11:33:32;8.40;99.90
17442;DHT22;8838;50.144;8.176;2024-01-30T11:36:00;8.40;99.90
17442;DHT22;8838;50.144;8.176;2024-01-30T11:38:28;8.40;99.90
17442;DHT22;8838;50.144;8.176;2024-01-30T11:40:55;8.40;99.90
17442;DHT22;8838;50.144;8.176;2024-01-30T11:43:23;8.30;99.90
17442;DHT22;8838;50.144;8.176;2024-01-30T11:45:50;8.20;99.90
17442;DHT22;8838;50.144;8.176;2024-01-30T11:48:19;8.10;99.90
17442;DHT22;8838;50.144;8.176;2024-01-30T11:50:46;8.20;99.90
17442;DHT22;8838;50.144;8.176;2024-01-30T11:53:13;8.40;99.90
17442;DHT22;8838;50.144;8.176;2024-01-30T11:55:40;8.50;99.90
17442;DHT22;8838;50.144;8.176;2024-01-30T11:58:07;8.60;99.90
17442;DHT22;8838;50.144;8.176;2024-01-30T12:00:34;8.70;99.90
17442;DHT22;8838;50.144;8.176;2024-01-30T12:03:01;8.70;99.90
17442;DHT22;8838;50.144;8.176;2024-01-30T12:05:30;8.70;99.90
17442;DHT22;8838;50.144;8.176;2024-01-30T12:07:57;8.80;99.90
17442;DHT22;8838;50.144;8.176;2024-01-30T12:10:25;8.80;99.90
17442;DHT22;8838;50.144;8.176;2024-01-30T12:12:54;8.70;99.90
17442;DHT22;8838;50.144;8.176;2024-01-30T12:15:21;8.70;99.90
17442;DHT22;8838;50.144;8.176;2024-01-30T12:17:49;8.70;99.90
17442;DHT22;8838;50.144;8.176;2024-01-30T12:20:18;8.80;99.90
17442;DHT22;8838;50.144;8.176;2024-01-30T12:22:49;8.80;99.90
17442;DHT22;8838;50.144;8.176;2024-01-30T12:25:18;8.80;99.90
17442;DHT22;8838;50.144;8.176;2024-01-30T12:27:47;8.80;99.90
17442;DHT22;8838;50.144;8.176;2024-01-30T12:30:16;8.80;99.90
17442;DHT22;8838;50.144;8.176;2024-01-30T12:32:43;8.80;99.90
17442;DHT22;8838;50.144;8.176;2024-01-30T12:35:11;8.80;99.90
17442;DHT22;8838;50.144;8.176;2024-01-30T12:37:39;8.80;99.90
17442;DHT22;8838;50.144;8.176;2024-01-30T12:40:08;8.80;99.90
17442;DHT22;8838;50.144;8.176;2024-01-30T12:42:36;8.80;99.90
17442;DHT22;8838;50.144;8.176;2024-01-30T12:45:05;8.80;99.90
17442;DHT22;8838;50.144;8.176;2024-01-30T12:47:32;8.80;99.90
17442;DHT22;8838;50.144;8.176;2024-01-30T12:49:59;8.80;99.90
17442;DHT22;8838;50.144;8.176;2024-01-30T12:52:26;8.70;99.90
17442;DHT22;8838;50.144;8.176;2024-01-30T12:54:54;8.80;99.90
17442;DHT22;8838;50.144;8.176;2024-01-30T12:57:22;8.70;99.90
17442;DHT22;8838;50.144;8.176;2024-01-30T12:59:50;8.70;99.90
17442;DHT22;8838;50.144;8.176;2024-01-30T13:02:17;8.60;99.90
17442;DHT22;8838;50.144;8.176;2024-01-30T13:04:44;8.60;99.90
17442;DHT22;8838;50.144;8.176;2024-01-30T13:07:12;8.50;99.90
17442;DHT22;8838;50.144;8.176;2024-01-30T13:09:39;8.40;99.90
17442;DHT22;8838;50.144;8.176;2024-01-30T13:12:06;8.30;99.90
17442;DHT22;8838;50.144;8.176;2024-01-30T13:14:35;8.20;99.90
17442;DHT22;8838;50.144;8.176;2024-01-30T13:17:02;8.20;99.90
17442;DHT22;8838;50.144;8.176;2024-01-30T13:19:29;8.20;99.90
17442;DHT22;8838;50.144;8.176;2024-01-30T13:21:56;8.20;99.90
17442;DHT22;8838;50.144;8.176;2024-01-30T13:24:24;8.30;99.90
17442;DHT22;8838;50.144;8.176;2024-01-30T13:26:52;8.30;99.90
17442;DHT22;8838;50.144;8.176;2024-01-30T13:29:19;8.30;99.90
17442;DHT22;8838;50.144;8.176;2024-01-30T13:31:49;8.40;99.90
17442;DHT22;8838;50.144;8.176;2024-01-30T13:34:16;8.40;99.90
17442;DHT22;8838;50.144;8.176;2024-01-30T13:36:43;8.40;99.90
17442;DHT22;8838;50.144;8.176;2024-01-30T13:39:10;8.40;99.90
17442;DHT22;8838;50.144;8.176;2024-01-30T13:41:38;8.30;99.90
17442;DHT22;8838;50.144;8.176;2024-01-30T13:44:05;8.30;99.90
17442;DHT22;8838;50.144;8.176;2024-01-30T13:46:32;8.30;99.90
17442;DHT22;8838;50.144;8.176;2024-01-30T13:49:00;8.30;99.90
17442;DHT22;8838;50.144;8.176;2024-01-30T13:51:27;8.20;99.90
17442;DHT22;8838;50.144;8.176;2024-01-30T13:53:54;8.20;99.90
17442;DHT22;8838;50.144;8.176;2024-01-30T13:56:21;8.20;99.90
17442;DHT22;8838;50.144;8.176;2024-01-30T13:58:48;8.30;99.90
17442;DHT22;8838;50.144;8.176;2024-01-30T14:01:15;8.20;99.90
17442;DHT22;8838;50.144;8.176;2024-01-30T14:03:42;8.20;99.90
17442;DHT22;8838;50.144;8.176;2024-01-30T14:06:11;8.20;99.90
17442;DHT22;8838;50.144;8.176;2024-01-30T14:08:38;8.20;99.90
17442;DHT22;8838;50.144;8.176;2024-01-30T14:11:05;8.10;99.90
17442;DHT22;8838;50.144;8.176;2024-01-30T14:13:32;8.10;99.90
17442;DHT22;8838;50.144;8.176;2024-01-30T14:15:59;8.10;99.90
17442;DHT22;8838;50.144;8.176;2024-01-30T14:18:26;8.00;99.90
17442;DHT22;8838;50.144;8.176;2024-01-30T14:20:53;8.00;99.90
17442;DHT22;8838;50.144;8.176;2024-01-30T14:23:22;8.00;99.90
17442;DHT22;8838;50.144;8.176;2024-01-30T14:25:49;8.00;99.90
17442;DHT22;8838;50.144;8.176;2024-01-30T14:28:18;7.90;99.90
17442;DHT22;8838;50.144;8.176;2024-01-30T14:30:44;7.90;99.90
17442;DHT22;8838;50.144;8.176;2024-01-30T14:33:11;7.90;99.90
17442;DHT22;8838;50.144;8.176;2024-01-30T14:35:42;7.90;99.90
17442;DHT22;8838;50.144;8.176;2024-01-30T14:38:09;7.80;99.90
17442;DHT22;8838;50.144;8.176;2024-01-30T14:40:38;7.80;99.90
17442;DHT22;8838;50.144;8.176;2024-01-30T14:43:05;7.80;99.90
17442;DHT22;8838;50.144;8.176;2024-01-30T14:45:31;7.90;99.90
17442;DHT22;8838;50.144;8.176;2024-01-30T14:47:59;7.80;99.90
17442;DHT22;8838;50.144;8.176;2024-01-30T14:50:26;7.80;99.90
17442;DHT22;8838;50.144;8.176;2024-01-30T14:52:54;7.90;99.90
17442;DHT22;8838;50.144;8.176;2024-01-30T14:55:20;7.90;99.90
17442;DHT22;8838;50.144;8.176;2024-01-30T14:57:49;7.90;99.90
17442;DHT22;8838;50.144;8.176;2024-01-30T15:00:16;7.90;99.90
17442;DHT22;8838;50.144;8.176;2024-01-30T15:02:44;7.90;99.90
17442;DHT22;8838;50.144;8.176;2024-01-30T15:05:12;7.80;99.90
17442;DHT22;8838;50.144;8.176;2024-01-30T15:07:39;7.80;99.90
17442;DHT22;8838;50.144;8.176;2024-01-30T15:10:07;7.80;99.90
17442;DHT22;8838;50.144;8.176;2024-01-30T15:12:35;7.80;99.90
17442;DHT22;8838;50.144;8.176;2024-01-30T15:15:06;7.80;99.90
17442;DHT22;8838;50.144;8.176;2024-01-30T15:17:33;7.80;99.90
17442;DHT22;8838;50.144;8.176;2024-01-30T15:20:00;7.80;99.90
17442;DHT22;8838;50.144;8.176;2024-01-30T15:22:29;7.80;99.90
17442;DHT22;8838;50.144;8.176;2024-01-30T15:24:56;7.80;99.90
17442;DHT22;8838;50.144;8.176;2024-01-30T15:27:23;7.60;99.90
17442;DHT22;8838;50.144;8.176;2024-01-30T15:29:50;7.60;99.90
17442;DHT22;8838;50.144;8.176;2024-01-30T15:32:19;7.60;99.90
17442;DHT22;8838;50.144;8.176;2024-01-30T15:34:46;7.60;99.90
17442;DHT22;8838;50.144;8.176;2024-01-30T15:37:13;7.60;99.90
17442;DHT22;8838;50.144;8.176;2024-01-30T15:39:40;7.70;99.90
17442;DHT22;8838;50.144;8.176;2024-01-30T15:42:07;7.70;99.90
17442;DHT22;8838;50.144;8.176;2024-01-30T15:44:36;7.60;99.90
17442;DHT22;8838;50.144;8.176;2024-01-30T15:47:04;7.60;99.90
17442;DHT22;8838;50.144;8.176;2024-01-30T15:49:33;7.60;99.90
17442;DHT22;8838;50.144;8.176;2024-01-30T15:52:01;7.60;99.90
17442;DHT22;8838;50.144;8.176;2024-01-30T15:54:28;7.60;99.90
17442;DHT22;8838;50.144;8.176;2024-01-30T15:56:55;7.60;99.90
17442;DHT22;8838;50.144;8.176;2024-01-30T15:59:22;7.50;99.90
17442;DHT22;8838;50.144;8.176;2024-01-30T16:01:50;7.50;99.90
17442;DHT22;8838;50.144;8.176;2024-01-30T16:04:17;7.60;99.90